Time;durP1;ratioP1;P1;durP2;ratioP2;P2;SDS_P1;SDS_P2;PMS_P1;PMS_P2;Temp;Humidity;BMP_temperature;BMP_pressure;BME280_temperature;BME280_humidity;BME280_pressure;Samples;Min_cycle;Max_cycle;Signal;HPM_P1;HPM_P2
2021/04/15 00:00:49;;;;;;;12.52;5.95;;;2.30;99.90;;;;;;4176810;28;20052;-81
2021/04/15 00:02:50;;;;;;;13.52;6.43;;;2.30;99.90;;;;;;4193466;28;20557;-81
2021/04/15 00:04:50;;;;;;;10.95;5.72;;;2.40;99.90;;;;;;4177436;28;20095;-82
2021/04/15 00:06:51;;;;;;;15.90;6.20;;;2.40;99.90;;;;;;4177336;28;20037;-81
2021/04/15 00:08:52;;;;;;;11.60;5.88;;;2.40;99.90;;;;;;4177719;28;20029;-81
2021/04/15 00:10:59;;;;;;;12.25;6.03;;;2.50;99.90;;;;;;4177767;28;20063;-81
2021/04/15 00:13:00;;;;;;;14.27;5.80;;;2.50;99.90;;;;;;4176296;28;20112;-82
2021/04/15 00:15:03;;;;;;;9.70;4.93;;;2.60;99.90;;;;;;4177459;28;20116;-82
2021/04/15 00:17:03;;;;;;;9.60;4.85;;;2.70;99.90;;;;;;4179039;28;20091;-82
2021/04/15 00:19:06;;;;;;;10.93;4.90;;;2.70;99.90;;;;;;4178680;28;20033;-81
2021/04/15 00:21:09;;;;;;;5.30;4.80;;;2.80;99.90;;;;;;4177036;28;20130;-82
2021/04/15 00:23:09;;;;;;;8.68;5.30;;;2.80;99.90;;;;;;4176129;28;20052;-82
2021/04/15 00:25:11;;;;;;;11.35;5.28;;;2.80;99.90;;;;;;4177375;28;20025;-82
2021/04/15 00:27:11;;;;;;;9.82;5.13;;;2.80;99.90;;;;;;4172304;28;20033;-81
2021/04/15 00:29:12;;;;;;;12.07;5.28;;;2.90;99.90;;;;;;4172707;28;20021;-82
2021/04/15 00:31:13;;;;;;;9.43;5.93;;;2.80;99.90;;;;;;4175683;28;20108;-82
2021/04/15 00:33:14;;;;;;;12.25;5.47;;;2.80;99.90;;;;;;4177868;28;20108;-82
2021/04/15 00:35:17;;;;;;;11.80;5.07;;;2.70;99.90;;;;;;4194972;28;20039;-82
2021/04/15 00:37:18;;;;;;;13.63;5.53;;;2.60;99.90;;;;;;4172602;28;20389;-82
2021/04/15 00:39:18;;;;;;;9.70;4.97;;;2.50;99.90;;;;;;4179283;28;20033;-82
2021/04/15 00:41:20;;;;;;;14.57;5.25;;;2.40;99.90;;;;;;4179030;28;20091;-82
2021/04/15 00:43:24;;;;;;;12.43;5.68;;;2.40;99.90;;;;;;4179268;28;20365;-82
2021/04/15 00:45:31;;;;;;;8.13;5.22;;;2.30;99.90;;;;;;4167375;28;20570;-82
2021/04/15 00:47:32;;;;;;;14.77;6.90;;;2.30;99.90;;;;;;4180302;28;20051;-82
2021/04/15 00:49:49;;;;;;;13.85;5.65;;;2.30;99.90;;;;;;4176646;28;20041;-82
2021/04/15 00:51:54;;;;;;;8.60;5.18;;;2.40;99.90;;;;;;4175317;28;20064;-82
2021/04/15 00:54:00;;;;;;;12.88;5.40;;;2.50;99.90;;;;;;4178529;28;20029;-82
2021/04/15 00:56:02;;;;;;;11.35;5.75;;;2.50;99.90;;;;;;4180113;28;20124;-81
2021/04/15 00:58:03;;;;;;;8.23;4.93;;;2.60;99.90;;;;;;4177599;28;20033;-82
2021/04/15 01:00:07;;;;;;;9.13;5.00;;;2.80;99.90;;;;;;4178373;28;20044;-82
2021/04/15 01:02:12;;;;;;;18.67;7.45;;;2.80;99.90;;;;;;4163489;28;20026;-83
2021/04/15 01:04:13;;;;;;;8.50;4.95;;;2.80;99.90;;;;;;4177539;28;20087;-81
2021/04/15 01:06:14;;;;;;;14.63;5.60;;;2.90;99.90;;;;;;4179455;28;20021;-81
2021/04/15 01:08:16;;;;;;;12.77;4.97;;;3.00;99.90;;;;;;4179567;28;20074;-81
2021/04/15 01:10:18;;;;;;;8.82;5.35;;;3.00;99.90;;;;;;4179147;28;20036;-81
2021/04/15 01:12:42;;;;;;;8.07;4.90;;;3.10;99.90;;;;;;4179856;28;20060;-81
2021/04/15 01:14:49;;;;;;;16.70;6.05;;;3.10;99.90;;;;;;4179954;28;20557;-81
2021/04/15 01:17:13;;;;;;;12.63;5.35;;;3.20;99.90;;;;;;4167058;28;20036;-81
2021/04/15 01:19:29;;;;;;;16.98;5.45;;;3.10;99.90;;;;;;4178030;28;20550;-82
2021/04/15 01:21:53;;;;;;;18.05;6.13;;;3.10;99.90;;;;;;4179350;28;20481;-81
2021/04/15 01:24:04;;;;;;;8.95;4.80;;;3.10;99.90;;;;;;4179101;28;20079;-81
2021/04/15 01:26:32;;;;;;;11.38;5.15;;;3.20;99.90;;;;;;4178093;28;20500;-81
2021/04/15 01:28:51;;;;;;;10.35;5.55;;;3.30;99.90;;;;;;4179313;28;20033;-81
2021/04/15 01:31:01;;;;;;;12.43;6.00;;;3.30;99.90;;;;;;4178435;28;20129;-82
2021/04/15 01:33:02;;;;;;;10.07;5.78;;;3.30;99.90;;;;;;4172835;28;20025;-81
2021/04/15 01:35:14;;;;;;;10.23;5.70;;;3.30;99.90;;;;;;4178648;28;20025;-81
2021/04/15 01:37:33;;;;;;;11.38;5.50;;;3.40;99.90;;;;;;4177814;28;20472;-81
2021/04/15 01:39:46;;;;;;;8.90;5.20;;;3.30;99.90;;;;;;4176215;28;20037;-81
2021/04/15 01:41:58;;;;;;;10.23;5.28;;;3.40;99.90;;;;;;4174911;28;20040;-81
2021/04/15 01:44:06;;;;;;;8.23;6.40;;;3.30;99.90;;;;;;4177273;28;20037;-81
2021/04/15 01:46:08;;;;;;;8.90;5.88;;;3.20;99.90;;;;;;4177613;28;20485;-80
2021/04/15 01:48:16;;;;;;;14.25;5.07;;;3.20;99.90;;;;;;4179310;28;20413;-81
2021/04/15 01:50:25;;;;;;;13.90;5.43;;;3.20;99.90;;;;;;4179154;28;20040;-81
2021/04/15 01:52:29;;;;;;;11.18;5.88;;;3.10;99.90;;;;;;4189455;28;20051;-81
2021/04/15 01:54:56;;;;;;;8.98;5.22;;;3.00;99.90;;;;;;4179179;28;20033;-81
2021/04/15 01:57:03;;;;;;;10.35;4.90;;;3.00;99.90;;;;;;4179282;28;20040;-81
2021/04/15 01:59:13;;;;;;;11.82;5.57;;;2.90;99.90;;;;;;4178794;28;20107;-81
2021/04/15 02:01:21;;;;;;;8.82;5.18;;;2.80;99.90;;;;;;4179243;28;20064;-81
2021/04/15 02:03:29;;;;;;;9.75;5.32;;;2.70;99.90;;;;;;4195804;28;20044;-81
2021/04/15 02:05:37;;;;;;;10.57;5.22;;;2.70;99.90;;;;;;4179390;28;20116;-81
2021/04/15 02:07:56;;;;;;;14.80;7.32;;;2.50;99.90;;;;;;4179128;28;20074;-82
2021/04/15 02:10:00;;;;;;;13.20;6.15;;;2.40;99.90;;;;;;4179376;28;20401;-81
2021/04/15 02:12:07;;;;;;;8.90;5.38;;;2.40;99.90;;;;;;4180077;28;20532;-81
2021/04/15 02:14:12;;;;;;;13.27;5.72;;;2.40;99.90;;;;;;4178518;28;20552;-81
2021/04/15 02:16:17;;;;;;;12.27;5.38;;;2.40;99.90;;;;;;4179085;28;20407;-81
2021/04/15 02:18:24;;;;;;;9.90;6.85;;;2.50;99.90;;;;;;4176081;28;20030;-81
2021/04/15 02:20:28;;;;;;;12.60;5.10;;;2.60;99.90;;;;;;4169537;28;20057;-80
2021/04/15 02:22:28;;;;;;;;;;;2.70;99.90;;;;;;4178941;28;20040;-81
2021/04/15 02:24:40;;;;;;;8.95;4.60;;;2.80;99.90;;;;;;4179392;28;19930;-81
2021/04/15 02:26:42;;;;;;;11.35;5.22;;;2.70;99.90;;;;;;4165539;28;20021;-81
2021/04/15 02:29:01;;;;;;;8.25;4.53;;;2.70;99.90;;;;;;4178331;28;20111;-81
2021/04/15 02:31:16;;;;;;;9.40;4.88;;;2.60;99.90;;;;;;4178420;28;20036;-81
2021/04/15 02:33:50;;;;;;;7.00;4.60;;;2.50;99.90;;;;;;4178542;28;20134;-81
2021/04/15 02:35:54;;;;;;;10.43;4.15;;;2.40;99.90;;;;;;4178070;28;20056;-81
2021/04/15 02:38:00;;;;;;;6.30;4.43;;;2.30;99.90;;;;;;4176172;28;20472;-81
2021/04/15 02:40:06;;;;;;;9.98;4.65;;;2.20;99.90;;;;;;4193814;28;20075;-82
2021/04/15 02:42:11;;;;;;;7.18;4.45;;;2.20;99.90;;;;;;4175272;28;20105;-81
2021/04/15 02:44:21;;;;;;;11.05;4.63;;;2.20;99.90;;;;;;4180373;28;20113;-81
2021/04/15 02:46:34;;;;;;;7.45;4.28;;;2.20;99.90;;;;;;4178778;28;20116;-81
2021/04/15 02:48:38;;;;;;;8.25;4.55;;;2.10;99.90;;;;;;4178356;28;20040;-81
2021/04/15 02:50:40;;;;;;;7.25;4.65;;;2.10;99.90;;;;;;4178714;28;20146;-81
2021/04/15 02:52:46;;;;;;;9.02;4.70;;;2.00;99.90;;;;;;4179341;28;20469;-80
2021/04/15 02:54:53;;;;;;;11.13;5.00;;;2.00;99.90;;;;;;4166169;28;20026;-80
2021/04/15 02:57:02;;;;;;;9.20;4.82;;;1.90;99.90;;;;;;4174931;28;20121;-81
2021/04/15 02:59:14;;;;;;;7.65;5.38;;;1.90;99.90;;;;;;4176325;28;20056;-81
2021/04/15 03:01:20;;;;;;;8.98;4.75;;;1.90;99.90;;;;;;4178002;28;20444;-81
2021/04/15 03:03:27;;;;;;;8.88;4.15;;;2.00;99.90;;;;;;4178251;28;20044;-82
2021/04/15 03:05:31;;;;;;;11.45;5.05;;;2.10;99.90;;;;;;4178566;28;20484;-81
2021/04/15 03:07:36;;;;;;;7.50;3.72;;;2.20;99.90;;;;;;4175218;28;20033;-81
2021/04/15 03:09:39;;;;;;;12.05;4.05;;;2.40;99.90;;;;;;4175674;28;20074;-81
2021/04/15 03:11:59;;;;;;;6.65;4.30;;;2.40;99.90;;;;;;4178381;28;20094;-81
2021/04/15 03:14:04;;;;;;;7.97;4.75;;;2.50;99.90;;;;;;4178022;28;20033;-81
2021/04/15 03:16:05;;;;;;;7.22;4.03;;;2.40;99.90;;;;;;4177886;28;20060;-81
2021/04/15 03:18:13;;;;;;;8.25;4.30;;;2.40;99.90;;;;;;4167177;28;20025;-81
2021/04/15 03:20:24;;;;;;;6.40;4.20;;;2.50;99.90;;;;;;4177902;28;20031;-81
2021/04/15 03:23:00;;;;;;;7.82;3.30;;;2.50;99.90;;;;;;4173783;28;20041;-81
2021/04/15 03:25:06;;;;;;;6.35;3.60;;;2.60;99.90;;;;;;4173940;28;20527;-82
2021/04/15 03:27:15;;;;;;;6.75;3.58;;;2.50;99.90;;;;;;4174516;28;20036;-82
2021/04/15 03:29:21;;;;;;;6.78;3.70;;;2.60;99.90;;;;;;4177081;28;20036;-82
2021/04/15 03:31:26;;;;;;;5.82;3.55;;;2.60;99.90;;;;;;4170473;28;20120;-82
2021/04/15 03:33:34;;;;;;;9.40;3.70;;;2.60;99.90;;;;;;4178633;28;20037;-82
2021/04/15 03:35:42;;;;;;;6.43;3.40;;;2.70;99.90;;;;;;4175584;28;20048;-82
2021/04/15 03:37:42;;;;;;;6.10;3.85;;;2.70;99.90;;;;;;4177484;28;20112;-82
2021/04/15 03:39:45;;;;;;;5.97;3.72;;;2.70;99.90;;;;;;4178189;28;20043;-82
2021/04/15 03:41:51;;;;;;;5.78;3.85;;;2.80;99.90;;;;;;4174909;28;20029;-82
2021/04/15 03:44:09;;;;;;;6.32;4.13;;;2.80;99.90;;;;;;4172788;28;20116;-82
2021/04/15 03:46:35;;;;;;;6.10;3.63;;;2.80;99.90;;;;;;4175397;28;20056;-82
2021/04/15 03:48:45;;;;;;;12.40;4.40;;;2.80;99.90;;;;;;4174521;28;20067;-82
2021/04/15 03:51:09;;;;;;;5.88;3.83;;;2.80;99.90;;;;;;4176660;28;20053;-82
2021/04/15 03:53:10;;;;;;;;;;;2.80;99.90;;;;;;4176651;28;20385;-82
2021/04/15 03:55:13;;;;;;;5.45;4.13;;;2.70;99.90;;;;;;4176258;28;19988;-82
2021/04/15 03:57:20;;;;;;;9.00;4.80;;;2.80;99.90;;;;;;4178911;28;20025;-82
2021/04/15 03:59:21;;;;;;;5.05;4.18;;;2.80;99.90;;;;;;4179267;28;22518;-82
2021/04/15 04:01:25;;;;;;;7.70;3.95;;;2.80;99.90;;;;;;4178909;28;20396;-82
2021/04/15 04:03:27;;;;;;;8.13;4.00;;;2.80;99.90;;;;;;4177599;28;20029;-82
2021/04/15 04:05:36;;;;;;;8.15;3.70;;;2.80;99.90;;;;;;4177215;28;20025;-81
2021/04/15 04:07:45;;;;;;;10.70;4.57;;;2.80;99.90;;;;;;4167683;28;20138;-81
2021/04/15 04:09:53;;;;;;;8.70;4.80;;;2.80;99.90;;;;;;4181326;28;20025;-81
2021/04/15 04:11:54;;;;;;;7.97;4.93;;;2.80;99.90;;;;;;4181119;28;20392;-81
2021/04/15 04:14:11;;;;;;;10.85;5.15;;;2.80;99.90;;;;;;4171999;28;20029;-80
2021/04/15 04:16:26;;;;;;;8.48;4.70;;;2.90;99.90;;;;;;4166631;28;20033;-81
2021/04/15 04:18:39;;;;;;;6.78;4.13;;;2.90;99.90;;;;;;4180967;28;20033;-81
2021/04/15 04:20:42;;;;;;;6.50;4.57;;;3.00;99.90;;;;;;4180789;28;20037;-81
2021/04/15 04:22:57;;;;;;;9.77;4.90;;;3.00;99.90;;;;;;4182254;28;20119;-81
2021/04/15 04:25:09;;;;;;;8.63;4.20;;;2.90;99.90;;;;;;4167539;28;20028;-81
2021/04/15 04:27:22;;;;;;;8.70;4.10;;;2.90;99.90;;;;;;4180332;28;20140;-81
2021/04/15 04:29:51;;;;;;;7.25;4.70;;;3.10;99.90;;;;;;4170678;28;20080;-81
2021/04/15 04:31:56;;;;;;;4.97;4.10;;;3.10;99.90;;;;;;4168192;28;20037;-81
2021/04/15 04:33:58;;;;;;;7.15;4.75;;;3.10;99.90;;;;;;4182345;28;20041;-82
2021/04/15 04:35:58;;;;;;;7.85;4.35;;;3.10;99.90;;;;;;4180134;28;20063;-81
2021/04/15 04:38:04;;;;;;;9.32;4.50;;;3.10;99.90;;;;;;4181282;28;20112;-82
2021/04/15 04:40:11;;;;;;;5.93;4.43;;;3.00;99.90;;;;;;4178524;28;20033;-81
2021/04/15 04:42:23;;;;;;;4.90;3.95;;;3.00;99.90;;;;;;4164540;28;20084;-82
2021/04/15 04:44:46;;;;;;;5.80;4.05;;;3.00;99.90;;;;;;4180215;28;20039;-82
2021/04/15 04:46:51;;;;;;;7.72;4.00;;;3.00;99.90;;;;;;4174710;28;20022;-81
2021/04/15 04:48:56;;;;;;;4.90;4.40;;;3.10;99.90;;;;;;4180627;28;20051;-82
2021/04/15 04:51:12;;;;;;;9.77;4.78;;;3.10;99.90;;;;;;4181130;28;20040;-82
2021/04/15 04:53:23;;;;;;;5.85;4.72;;;3.10;99.90;;;;;;4176985;28;20029;-82
2021/04/15 04:55:39;;;;;;;10.73;5.15;;;3.10;99.90;;;;;;4181603;28;20121;-83
2021/04/15 04:57:41;;;;;;;6.03;4.03;;;3.20;99.90;;;;;;4180359;28;20032;-83
2021/04/15 04:59:59;;;;;;;8.23;4.80;;;3.10;99.90;;;;;;4175015;28;20021;-83
2021/04/15 05:02:00;;;;;;;9.00;4.68;;;3.10;99.90;;;;;;4174170;28;20492;-83
2021/04/15 05:04:02;;;;;;;9.35;4.90;;;3.10;99.90;;;;;;4180419;28;20024;-82
2021/04/15 05:06:06;;;;;;;6.50;4.43;;;3.10;99.90;;;;;;4164185;28;20068;-82
2021/04/15 05:08:23;;;;;;;7.28;5.10;;;3.20;99.90;;;;;;4168589;28;20098;-82
2021/04/15 05:10:27;;;;;;;8.13;4.75;;;3.20;99.90;;;;;;4180276;28;20045;-83
2021/04/15 05:12:31;;;;;;;10.27;4.72;;;3.20;99.90;;;;;;4181991;28;20086;-82
2021/04/15 05:14:32;;;;;;;14.57;5.38;;;3.20;99.90;;;;;;4178799;28;20029;-81
2021/04/15 05:16:54;;;;;;;8.00;5.18;;;3.20;99.90;;;;;;4167894;28;20489;-82
2021/04/15 05:18:55;;;;;;;6.72;4.75;;;3.20;99.90;;;;;;4175666;28;20049;-82
2021/04/15 05:21:04;;;;;;;7.70;4.95;;;3.10;99.90;;;;;;4178450;28;20393;-82
2021/04/15 05:23:25;;;;;;;11.00;6.85;;;3.00;99.90;;;;;;4174979;28;20417;-82
2021/04/15 05:25:31;;;;;;;12.70;5.88;;;3.00;99.90;;;;;;4173846;28;20690;-82
2021/04/15 05:27:35;;;;;;;8.30;5.88;;;2.90;99.90;;;;;;4180897;28;20032;-82
2021/04/15 05:29:40;;;;;;;;;;;2.80;99.90;;;;;;4181390;28;20037;-82
2021/04/15 05:31:44;;;;;;;8.07;4.97;;;2.80;99.90;;;;;;4177414;28;20400;-82
2021/04/15 05:33:45;;;;;;;15.90;6.03;;;2.80;99.90;;;;;;4178661;28;20032;-82
2021/04/15 05:36:01;;;;;;;8.25;5.88;;;2.80;99.90;;;;;;4179585;28;20044;-83
2021/04/15 05:38:01;;;;;;;10.93;6.03;;;2.80;99.90;;;;;;4179202;28;20029;-82
2021/04/15 05:40:03;;;;;;;9.52;6.00;;;2.80;99.90;;;;;;4180802;28;20028;-82
2021/04/15 05:42:09;;;;;;;8.93;6.53;;;2.80;99.90;;;;;;4179704;28;20086;-82
2021/04/15 05:44:28;;;;;;;13.20;6.32;;;2.70;99.90;;;;;;4181222;28;20025;-81
2021/04/15 05:46:40;;;;;;;9.80;6.18;;;2.80;99.90;;;;;;4170967;28;20029;-82
2021/04/15 05:48:43;;;;;;;11.98;6.22;;;2.80;99.90;;;;;;4165946;28;20026;-82
2021/04/15 05:50:51;;;;;;;7.50;5.63;;;2.70;99.90;;;;;;4179129;28;20052;-82
2021/04/15 05:53:06;;;;;;;10.73;6.07;;;2.70;99.90;;;;;;4169587;28;20022;-82
2021/04/15 05:55:11;;;;;;;12.15;5.53;;;2.70;99.90;;;;;;4170988;28;20017;-81
2021/04/15 05:57:15;;;;;;;7.35;5.88;;;2.80;99.90;;;;;;4175697;28;20036;-82
2021/04/15 05:59:41;;;;;;;12.52;6.00;;;2.80;99.90;;;;;;4180483;28;20025;-82
2021/04/15 06:01:45;;;;;;;13.27;6.60;;;2.80;99.90;;;;;;4179072;28;20083;-81
2021/04/15 06:04:37;;;;;;;12.18;6.00;;;2.90;99.90;;;;;;4168420;28;20034;-81
2021/04/15 06:06:40;;;;;;;11.93;7.35;;;3.00;99.90;;;;;;4153922;28;20158;-82
2021/04/15 06:08:44;;;;;;;11.85;5.85;;;3.20;99.90;;;;;;4178839;28;20472;-80
2021/04/15 06:10:45;;;;;;;16.92;5.90;;;3.30;99.90;;;;;;4178885;28;20110;-80
2021/04/15 06:12:50;;;;;;;10.70;6.88;;;3.50;99.90;;;;;;4179330;28;20028;-80
2021/04/15 06:15:25;;;;;;;7.55;5.97;;;3.60;99.90;;;;;;4175798;28;20037;-81
2021/04/15 06:17:34;;;;;;;12.10;6.03;;;3.70;99.90;;;;;;4177133;28;20054;-80
2021/04/15 06:19:37;;;;;;;12.05;6.28;;;3.80;99.90;;;;;;4173249;28;20116;-78
2021/04/15 06:21:45;;;;;;;7.63;6.03;;;3.90;99.90;;;;;;4179365;28;20055;-79
2021/04/15 06:23:59;;;;;;;8.07;5.35;;;3.90;99.90;;;;;;4178018;28;20106;-79
2021/04/15 06:26:00;;;;;;;;;;;4.00;99.90;;;;;;4170380;28;20029;-80
2021/04/15 06:28:07;;;;;;;7.50;4.70;;;4.10;99.90;;;;;;4177917;28;19975;-79
2021/04/15 06:30:34;;;;;;;10.82;5.95;;;4.20;99.90;;;;;;4164394;28;20029;-80
2021/04/15 06:32:58;;;;;;;9.45;5.65;;;4.20;99.90;;;;;;4175947;28;20120;-80
2021/04/15 06:34:58;;;;;;;10.32;5.05;;;4.40;99.90;;;;;;4177198;28;20549;-80
2021/04/15 06:37:04;;;;;;;10.50;5.93;;;4.50;99.90;;;;;;4177846;28;20033;-81
2021/04/15 06:39:24;;;;;;;8.30;5.30;;;4.70;99.90;;;;;;4175871;28;20059;-82
2021/04/15 06:41:46;;;;;;;9.20;6.00;;;4.70;99.90;;;;;;4175793;28;20507;-80
2021/04/15 06:43:58;;;;;;;10.15;6.57;;;4.70;99.90;;;;;;4166158;28;20212;-81
2021/04/15 06:46:36;;;;;;;9.98;5.90;;;4.70;99.90;;;;;;4177983;28;20029;-79
2021/04/15 06:49:30;;;;;;;11.73;6.20;;;4.70;99.90;;;;;;4176936;28;20051;-79
2021/04/15 06:51:36;;;;;;;9.07;6.40;;;4.70;99.90;;;;;;4174324;28;20044;-80
2021/04/15 06:53:58;;;;;;;9.55;6.45;;;4.60;99.90;;;;;;4177251;28;20613;-79
2021/04/15 06:59:28;;;;;;;11.13;7.07;;;4.40;99.90;;;;;;4175934;27;20721;-81
2021/04/15 07:01:53;;;;;;;10.70;6.75;;;4.40;99.90;;;;;;4156424;28;20053;-79
2021/04/15 07:04:11;;;;;;;9.85;7.07;;;4.40;99.90;;;;;;4182026;28;20033;-81
2021/04/15 07:06:39;;;;;;;19.40;6.85;;;4.40;99.90;;;;;;4166880;28;20618;-79
2021/04/15 07:09:02;;;;;;;14.98;6.57;;;4.40;99.90;;;;;;4177669;28;20067;-80
2021/04/15 07:11:27;;;;;;;11.30;6.68;;;4.40;99.90;;;;;;4185413;28;20039;-80
2021/04/15 07:13:36;;;;;;;12.02;6.50;;;4.50;99.90;;;;;;4181730;28;20040;-80
2021/04/15 07:15:59;;;;;;;11.75;6.63;;;4.60;99.90;;;;;;4167529;28;20037;-82
2021/04/15 07:18:37;;;;;;;11.75;6.63;;;4.70;99.90;;;;;;4185422;28;20443;-80
2021/04/15 07:20:37;;;;;;;10.88;5.80;;;4.80;99.90;;;;;;4164277;28;20029;-79
2021/04/15 07:23:15;;;;;;;9.23;6.45;;;4.90;99.90;;;;;;4173494;28;20128;-80
2021/04/15 07:25:53;;;;;;;8.10;6.45;;;4.90;99.90;;;;;;4146250;28;20082;-81
2021/04/15 07:28:18;;;;;;;16.02;6.65;;;5.00;99.90;;;;;;4185062;28;20084;-80
2021/04/15 07:30:56;;;;;;;12.48;6.63;;;4.90;99.90;;;;;;4188524;28;20078;-80
2021/04/15 07:33:06;;;;;;;8.40;6.03;;;4.90;99.90;;;;;;4161845;28;20419;-80
2021/04/15 07:35:35;;;;;;;12.18;7.38;;;4.90;99.90;;;;;;4145631;28;20029;-80
2021/04/15 07:37:55;;;;;;;9.02;6.32;;;5.00;99.90;;;;;;4144142;28;20378;-80
2021/04/15 07:40:17;;;;;;;10.85;6.28;;;5.10;99.90;;;;;;4145999;28;20038;-80
2021/04/15 07:42:44;;;;;;;8.02;6.00;;;5.20;99.90;;;;;;4182542;28;20601;-80
2021/04/15 07:44:55;;;;;;;14.18;5.60;;;5.50;99.90;;;;;;4167590;28;20116;-82
2021/04/15 07:47:18;;;;;;;6.22;5.43;;;5.60;99.90;;;;;;4169770;28;20123;-80
2021/04/15 07:49:42;;;;;;;5.63;5.07;;;5.80;99.90;;;;;;4167832;28;20112;-80
2021/04/15 07:52:17;;;;;;;13.32;5.68;;;6.10;99.90;;;;;;4180941;28;20434;-80
2021/04/15 07:54:45;;;;;;;8.50;6.07;;;6.20;99.90;;;;;;4193440;28;20519;-79
2021/04/15 07:57:02;;;;;;;8.60;5.45;;;6.20;99.90;;;;;;4185360;28;20024;-81
2021/04/15 07:59:08;;;;;;;10.38;4.75;;;6.20;99.90;;;;;;4143937;28;20038;-81
2021/04/15 08:01:18;;;;;;;8.80;6.68;;;6.20;99.90;;;;;;4201723;28;20037;-82
2021/04/15 08:03:30;;;;;;;6.63;5.43;;;6.30;99.90;;;;;;4197422;28;20016;-81
2021/04/15 08:05:57;;;;;;;9.73;5.68;;;6.30;99.90;;;;;;4200759;28;20032;-80
2021/04/15 08:08:09;;;;;;;10.43;6.25;;;6.20;99.90;;;;;;4183223;28;20079;-79
2021/04/15 08:10:27;;;;;;;16.58;6.18;;;6.20;99.90;;;;;;4171444;28;20028;-79
2021/04/15 08:12:53;;;;;;;9.60;5.53;;;6.10;99.90;;;;;;4166548;28;20106;-79
2021/04/15 08:15:09;;;;;;;9.93;5.55;;;6.00;99.90;;;;;;4158044;28;20049;-81
2021/04/15 08:17:16;;;;;;;12.15;6.07;;;5.80;99.90;;;;;;4180411;28;20087;-79
2021/04/15 08:19:54;;;;;;;10.50;5.25;;;5.80;99.90;;;;;;4164606;28;20033;-80
2021/04/15 08:21:59;;;;;;;8.02;4.93;;;5.80;99.90;;;;;;4152962;28;20034;-78
2021/04/15 08:24:21;;;;;;;6.57;5.25;;;5.80;99.90;;;;;;4179116;28;20400;-79
2021/04/15 08:26:51;;;;;;;8.70;4.65;;;5.90;99.90;;;;;;4153736;28;20089;-80
2021/04/15 08:29:10;;;;;;;10.80;4.65;;;6.10;99.90;;;;;;4121908;28;20075;-83
2021/04/15 08:31:16;;;;;;;9.57;5.30;;;6.20;99.90;;;;;;4164979;28;20058;-82
2021/04/15 08:33:47;;;;;;;7.10;5.05;;;6.10;99.90;;;;;;4169378;28;20432;-82
2021/04/15 08:36:35;;;;;;;9.63;5.50;;;6.00;99.90;;;;;;4178289;28;20040;-81
2021/04/15 08:38:51;;;;;;;5.95;5.18;;;5.80;99.90;;;;;;4134113;28;20504;-81
2021/04/15 08:41:01;;;;;;;6.85;5.03;;;5.70;99.90;;;;;;4164351;28;20034;-81
2021/04/15 08:44:00;;;;;;;10.43;6.25;;;5.80;99.90;;;;;;4189786;28;20025;-83
2021/04/15 08:46:15;;;;;;;7.53;5.35;;;5.90;99.90;;;;;;4140047;28;20029;-82
2021/04/15 08:48:38;;;;;;;10.38;4.95;;;5.90;99.90;;;;;;4159376;28;20416;-82
2021/04/15 08:50:52;;;;;;;8.05;4.85;;;6.10;99.90;;;;;;4182958;28;20025;-81
2021/04/15 08:53:07;;;;;;;7.25;4.72;;;6.20;99.90;;;;;;4153603;28;20084;-79
2021/04/15 08:55:35;;;;;;;9.45;5.78;;;6.20;99.90;;;;;;4184977;28;20032;-80
2021/04/15 08:58:09;;;;;;;7.22;4.72;;;6.20;99.90;;;;;;4173255;28;20061;-80
2021/04/15 09:00:21;;;;;;;10.82;3.95;;;6.30;99.90;;;;;;4165183;28;20094;-81
2021/04/15 09:02:46;;;;;;;4.53;4.10;;;6.40;99.90;;;;;;4166702;28;20044;-80
2021/04/15 09:04:58;;;;;;;4.53;3.83;;;6.70;99.90;;;;;;4157956;28;20036;-80
2021/04/15 09:07:12;;;;;;;10.07;4.13;;;6.90;99.90;;;;;;4161786;28;20389;-80
2021/04/15 09:09:30;;;;;;;7.90;3.95;;;7.00;99.90;;;;;;4161974;28;20076;-80
2021/04/15 09:11:39;;;;;;;5.18;3.65;;;7.20;99.90;;;;;;4187457;28;20033;-79
2021/04/15 09:13:54;;;;;;;7.28;3.65;;;7.30;99.90;;;;;;4155747;28;20056;-80
2021/04/15 09:16:19;;;;;;;6.22;3.70;;;7.30;99.90;;;;;;4183601;28;20048;-79
2021/04/15 09:18:41;;;;;;;7.45;4.20;;;7.40;99.90;;;;;;4166141;28;20108;-79
2021/04/15 09:21:19;;;;;;;6.75;3.88;;;7.80;99.90;;;;;;4167500;28;20488;-82
2021/04/15 09:23:47;;;;;;;6.30;3.97;;;8.30;99.90;;;;;;4162429;28;20032;-80
2021/04/15 09:26:33;;;;;;;7.28;3.65;;;8.20;99.90;;;;;;4158451;28;20033;-80
2021/04/15 09:28:47;;;;;;;7.38;3.90;;;8.10;99.90;;;;;;4172878;28;20037;-78
2021/04/15 09:31:17;;;;;;;6.35;3.10;;;7.90;99.90;;;;;;4167086;28;20419;-80
2021/04/15 09:33:55;;;;;;;6.25;3.85;;;7.90;99.90;;;;;;4185799;28;20077;-80
2021/04/15 09:36:05;;;;;;;6.47;3.88;;;7.70;99.90;;;;;;4185542;28;20048;-79
2021/04/15 09:38:33;;;;;;;6.57;3.83;;;7.60;99.90;;;;;;4181784;28;20048;-81
2021/04/15 09:40:57;;;;;;;7.05;4.22;;;7.40;99.90;;;;;;4180822;28;20487;-80
2021/04/15 09:43:13;;;;;;;4.07;3.58;;;7.30;99.90;;;;;;4174089;28;20040;-81
2021/04/15 09:45:35;;;;;;;5.05;3.67;;;7.40;99.90;;;;;;4178807;28;20025;-81
2021/04/15 09:48:13;;;;;;;2.72;2.53;;;7.70;99.90;;;;;;4164529;28;20552;-80
2021/04/15 09:50:39;;;;;;;6.25;3.03;;;8.00;99.90;;;;;;4147450;28;20030;-79
2021/04/15 09:52:58;;;;;;;7.43;3.38;;;8.00;99.90;;;;;;4146985;28;20089;-79
2021/04/15 09:55:12;;;;;;;3.65;2.80;;;8.60;99.90;;;;;;4150406;28;20029;-80
2021/04/15 09:57:25;;;;;;;8.50;3.50;;;9.40;99.90;;;;;;4177511;28;20108;-80
2021/04/15 10:00:02;;;;;;;3.42;3.13;;;9.60;99.90;;;;;;4164954;28;20048;-79
2021/04/15 10:02:16;;;;;;;3.90;2.97;;;9.20;99.90;;;;;;4159431;28;20109;-80
2021/04/15 10:04:57;;;;;;;3.45;3.10;;;9.00;99.90;;;;;;4164523;28;20025;-79
2021/04/15 10:07:05;;;;;;;3.53;3.10;;;8.40;99.90;;;;;;4166383;28;20037;-79
2021/04/15 10:09:26;;;;;;;3.92;3.35;;;8.30;99.90;;;;;;4187545;28;20486;-80
2021/04/15 10:11:57;;;;;;;3.42;2.92;;;8.20;99.90;;;;;;4148243;28;20503;-79
2021/04/15 10:15:02;;;;;;;4.60;3.13;;;8.10;99.90;;;;;;4154697;28;20144;-79
2021/04/15 10:17:21;;;;;;;3.85;3.22;;;8.40;99.90;;;;;;4106522;28;20534;-80
2021/04/15 10:19:40;;;;;;;4.28;2.50;;;8.70;99.90;;;;;;4110372;28;21004;-80
2021/04/15 10:21:50;;;;;;;4.57;2.45;;;8.90;99.90;;;;;;4113233;28;20095;-80
2021/04/15 10:24:02;;;;;;;4.25;2.33;;;9.90;99.90;;;;;;4160952;28;20034;-80
2021/04/15 10:26:27;;;;;;;2.72;2.53;;;11.30;99.90;;;;;;4160780;28;20053;-80
2021/04/15 10:28:44;;;;;;;5.88;2.65;;;12.00;99.90;;;;;;4178424;28;20044;-80
2021/04/15 10:31:18;;;;;;;3.03;2.72;;;11.80;99.90;;;;;;4171832;28;20401;-80
2021/04/15 10:33:38;;;;;;;3.70;2.70;;;10.80;99.90;;;;;;4186266;28;20071;-78
2021/04/15 10:36:32;;;;;;;5.72;2.60;;;9.90;99.90;;;;;;4179476;28;20028;-78
2021/04/15 10:38:58;;;;;;;5.53;3.35;;;9.70;99.90;;;;;;4116907;28;20069;-78
2021/04/15 10:41:28;;;;;;;4.05;2.60;;;9.30;99.90;;;;;;4158179;28;20059;-77
2021/04/15 10:43:51;;;;;;;3.00;2.50;;;9.50;99.90;;;;;;4174299;28;20086;-78
2021/04/15 10:46:20;;;;;;;4.07;2.60;;;9.30;99.90;;;;;;4182745;28;20052;-77
2021/04/15 10:48:28;;;;;;;2.40;2.20;;;9.10;99.90;;;;;;4188236;28;20453;-77
2021/04/15 10:50:31;;;;;;;3.70;2.80;;;9.30;99.90;;;;;;4154103;28;20044;-77
2021/04/15 10:52:37;;;;;;;5.45;2.75;;;9.20;99.90;;;;;;4178111;28;20041;-76
2021/04/15 10:54:44;;;;;;;2.92;2.70;;;9.50;99.90;;;;;;4180677;28;20033;-77
2021/04/15 10:56:48;;;;;;;3.38;2.95;;;9.50;99.90;;;;;;4148254;28;20081;-78
2021/04/15 10:58:51;;;;;;;3.03;2.80;;;9.50;99.90;;;;;;4159240;28;20084;-77
2021/04/15 11:00:52;;;;;;;4.78;3.80;;;9.50;99.90;;;;;;4166065;28;20098;-81
2021/04/15 11:03:09;;;;;;;2.90;2.50;;;9.70;99.90;;;;;;4154702;28;20084;-80
2021/04/15 11:05:38;;;;;;;2.70;2.50;;;9.60;99.90;;;;;;4159878;28;20109;-78
2021/04/15 11:07:39;;;;;;;3.05;2.75;;;10.00;99.90;;;;;;4173055;28;20081;-79
2021/04/15 11:09:46;;;;;;;3.33;2.72;;;10.60;99.90;;;;;;4149157;28;20365;-79
2021/04/15 11:12:13;;;;;;;3.38;2.78;;;11.40;99.90;;;;;;4156281;28;20030;-78
2021/04/15 11:14:14;;;;;;;3.38;2.92;;;11.40;99.90;;;;;;4144863;28;20034;-78
2021/04/15 11:16:20;;;;;;;3.08;2.78;;;11.50;99.90;;;;;;4164454;28;20235;-78
2021/04/15 11:18:39;;;;;;;4.60;2.75;;;11.40;99.90;;;;;;4161543;28;20038;-80
2021/04/15 11:20:42;;;;;;;5.20;3.15;;;11.20;99.90;;;;;;4170269;28;20028;-80
2021/04/15 11:22:53;;;;;;;5.10;3.00;;;11.20;99.90;;;;;;4148264;28;20057;-79
2021/04/15 11:25:10;;;;;;;2.60;2.40;;;;;;;;;;4158098;28;20034;-80
2021/04/15 11:27:12;;;;;;;3.17;2.50;;;12.40;99.90;;;;;;4163019;28;20032;-80
2021/04/15 11:29:27;;;;;;;5.78;3.05;;;13.30;99.90;;;;;;4157233;28;20038;-79
2021/04/15 11:31:35;;;;;;;4.03;2.70;;;14.40;99.90;;;;;;4164330;28;20031;-79
2021/04/15 11:33:44;;;;;;;4.45;3.05;;;14.00;99.20;;;;;;4162308;28;20030;-79
2021/04/15 11:35:45;;;;;;;2.90;2.47;;;13.30;99.90;;;;;;4155730;28;20060;-80
2021/04/15 11:37:49;;;;;;;2.58;2.38;;;12.70;99.90;;;;;;4159223;28;20044;-80
2021/04/15 11:39:50;;;;;;;3.45;2.65;;;12.60;99.90;;;;;;4159682;28;20034;-79
2021/04/15 11:41:55;;;;;;;3.83;2.67;;;12.40;99.90;;;;;;4161848;28;20033;-79
2021/04/15 11:44:27;;;;;;;4.10;2.70;;;11.60;99.90;;;;;;4157155;28;20033;-78